createdAt,value
2023-04-27T00:01:49.778Z,97324.00
2023-04-27T00:04:16.716Z,97315.50
2023-04-27T00:06:43.379Z,97312.66
2023-04-27T00:09:09.855Z,97327.06
2023-04-27T00:11:36.238Z,97308.53
2023-04-27T00:14:02.656Z,97320.59
2023-04-27T00:16:29.108Z,97325.22
2023-04-27T00:18:55.767Z,97321.38
2023-04-27T00:21:22.120Z,97318.22
2023-04-27T00:23:48.487Z,97323.28
2023-04-27T00:26:14.896Z,97327.16
2023-04-27T00:28:41.258Z,97326.63
2023-04-27T00:31:07.604Z,97332.75
2023-04-27T00:33:34.000Z,97322.94
2023-04-27T00:36:01.563Z,97319.34
2023-04-27T00:38:29.098Z,97329.38
2023-04-27T00:41:05.528Z,97314.75
2023-04-27T00:43:32.716Z,97314.50
2023-04-27T00:46:00.140Z,97322.78
2023-04-27T00:48:26.894Z,97316.81
2023-04-27T00:50:53.280Z,97319.09
2023-04-27T00:53:19.812Z,97320.91
2023-04-27T00:55:47.059Z,97326.28
2023-04-27T00:58:13.438Z,97316.19
2023-04-27T01:00:40.254Z,97322.44
2023-04-27T01:03:07.476Z,97326.28
2023-04-27T01:05:34.767Z,97313.41
2023-04-27T01:08:01.242Z,97307.69
2023-04-27T01:10:28.409Z,97326.25
2023-04-27T01:12:54.965Z,97326.97
2023-04-27T01:15:21.354Z,97314.34
2023-04-27T01:17:48.618Z,97335.69
2023-04-27T01:20:15.401Z,97314.81
2023-04-27T01:22:41.798Z,97310.91
2023-04-27T01:25:08.689Z,97323.72
2023-04-27T01:27:35.106Z,97316.94
2023-04-27T01:30:01.545Z,97324.38
2023-04-27T01:32:27.969Z,97337.47
2023-04-27T01:34:54.398Z,97336.75
2023-04-27T01:37:21.151Z,97336.25
2023-04-27T01:39:47.542Z,97335.44
2023-04-27T01:42:13.897Z,97337.72
2023-04-27T01:44:40.395Z,97331.00
2023-04-27T01:47:06.769Z,97336.44
2023-04-27T01:49:33.101Z,97320.75
2023-04-27T01:51:59.491Z,97335.09
2023-04-27T01:54:28.679Z,97342.28
2023-04-27T01:56:55.537Z,97321.72
2023-04-27T01:59:21.917Z,97327.81
2023-04-27T02:01:48.270Z,97335.25
2023-04-27T02:04:14.956Z,97330.91
2023-04-27T02:06:41.593Z,97331.94
2023-04-27T02:09:07.957Z,97340.16
2023-04-27T02:11:34.293Z,97361.78
2023-04-27T02:14:01.034Z,97355.84
2023-04-27T02:16:27.446Z,97349.34
2023-04-27T02:18:53.824Z,97340.59
2023-04-27T02:21:20.999Z,97345.25
2023-04-27T02:23:47.543Z,97342.84
2023-04-27T02:26:19.167Z,97359.06
2023-04-27T02:28:46.392Z,97341.31
2023-04-27T02:31:14.519Z,97358.84
2023-04-27T02:33:41.847Z,97354.13
2023-04-27T02:36:09.035Z,97361.88
2023-04-27T02:38:35.402Z,97366.22
2023-04-27T02:41:01.822Z,97350.78
2023-04-27T02:43:28.182Z,97346.88
2023-04-27T02:45:54.532Z,97357.22
2023-04-27T02:48:20.888Z,97353.66
2023-04-27T02:50:47.220Z,97348.97
2023-04-27T02:53:13.636Z,97354.41
2023-04-27T02:55:47.525Z,97351.56
2023-04-27T02:58:14.336Z,97354.72
2023-04-27T03:00:41.393Z,97351.38
2023-04-27T03:03:08.155Z,97336.69
2023-04-27T03:05:34.703Z,97330.25
2023-04-27T03:08:01.310Z,97337.16
2023-04-27T03:10:27.724Z,97346.44
2023-04-27T03:12:54.098Z,97341.03
2023-04-27T03:15:20.445Z,97335.84
2023-04-27T03:17:47.005Z,97334.91
2023-04-27T03:20:13.440Z,97332.81
2023-04-27T03:22:39.887Z,97342.34
2023-04-27T03:25:07.169Z,97340.97
2023-04-27T03:27:33.526Z,97342.81
2023-04-27T03:29:59.886Z,97336.94
2023-04-27T03:32:26.367Z,97326.13
2023-04-27T03:34:53.268Z,97326.91
2023-04-27T03:37:19.707Z,97335.38
2023-04-27T03:39:46.069Z,97324.81
2023-04-27T03:42:12.529Z,97324.13
2023-04-27T03:44:38.883Z,97339.28
2023-04-27T03:47:09.615Z,97335.13
2023-04-27T03:49:36.449Z,97342.16
2023-04-27T03:52:03.558Z,97328.50
2023-04-27T03:54:32.008Z,97332.91
2023-04-27T03:56:58.408Z,97341.47
2023-04-27T03:59:24.803Z,97343.25
2023-04-27T04:01:51.797Z,97333.44
2023-04-27T04:04:18.357Z,97343.19
2023-04-27T04:06:44.893Z,97341.16
2023-04-27T04:09:12.678Z,97338.03
2023-04-27T04:11:39.290Z,97341.59
2023-04-27T04:14:05.826Z,97336.19
2023-04-27T04:16:33.806Z,97345.25
2023-04-27T04:19:00.149Z,97332.06
2023-04-27T04:21:26.665Z,97336.94
2023-04-27T04:23:53.066Z,97349.59
2023-04-27T04:26:20.434Z,97349.06
2023-04-27T04:28:46.801Z,97342.59
2023-04-27T04:31:13.401Z,97348.25
2023-04-27T04:33:39.788Z,97345.66
2023-04-27T04:36:06.770Z,97353.88
2023-04-27T04:38:33.268Z,97350.88
2023-04-27T04:40:59.736Z,97347.59
2023-04-27T04:43:26.740Z,97349.97
2023-04-27T04:45:53.150Z,97362.47
2023-04-27T04:48:20.319Z,97352.78
2023-04-27T04:50:46.691Z,97359.06
2023-04-27T04:53:13.161Z,97360.41
2023-04-27T04:55:39.507Z,97360.16
2023-04-27T04:58:06.108Z,97356.50
2023-04-27T05:00:32.503Z,97362.75
2023-04-27T05:02:59.021Z,97354.63
2023-04-27T05:05:25.953Z,97361.16
2023-04-27T05:07:52.315Z,97370.19
2023-04-27T05:10:18.844Z,97368.31
2023-04-27T05:12:45.260Z,97367.53
2023-04-27T05:15:11.909Z,97372.47
2023-04-27T05:17:38.360Z,97381.94
2023-04-27T05:20:05.281Z,97365.72
2023-04-27T05:22:31.831Z,97382.19
2023-04-27T05:24:58.983Z,97372.94
2023-04-27T05:27:25.508Z,97386.66
2023-04-27T05:29:51.978Z,97363.06
2023-04-27T05:32:18.330Z,97387.91
2023-04-27T05:34:46.201Z,97369.69
2023-04-27T05:37:14.148Z,97374.63
2023-04-27T05:39:40.776Z,97384.69
2023-04-27T05:42:07.202Z,97382.66
2023-04-27T05:44:33.615Z,97383.16
2023-04-27T05:46:59.954Z,97382.34
2023-04-27T05:49:26.686Z,97378.69
2023-04-27T05:51:53.582Z,97388.06
2023-04-27T05:54:19.967Z,97379.16
2023-04-27T05:56:46.319Z,97396.06
2023-04-27T05:59:13.559Z,97387.38
2023-04-27T06:01:40.032Z,97390.56
2023-04-27T06:04:07.082Z,97388.22
2023-04-27T06:06:34.895Z,97399.13
2023-04-27T06:09:01.313Z,97395.78
2023-04-27T06:11:28.501Z,97401.66
2023-04-27T06:13:54.925Z,97405.31
2023-04-27T06:16:21.519Z,97401.97
2023-04-27T06:18:50.506Z,97409.34
2023-04-27T06:21:17.411Z,97409.09
2023-04-27T06:23:43.786Z,97398.53
2023-04-27T06:26:10.148Z,97405.81
2023-04-27T06:28:36.549Z,97413.19
2023-04-27T06:31:03.052Z,97409.72
2023-04-27T06:33:29.419Z,97418.94
2023-04-27T06:35:55.751Z,97413.94
2023-04-27T06:38:22.260Z,97413.22
2023-04-27T06:40:52.628Z,97418.19
2023-04-27T06:43:19.221Z,97419.56
2023-04-27T06:45:45.988Z,97414.47
2023-04-27T06:48:12.452Z,97419.38
2023-04-27T06:50:38.852Z,97411.81
2023-04-27T06:53:05.275Z,97409.47
2023-04-27T06:55:31.643Z,97418.44
2023-04-27T06:57:57.996Z,97407.53
2023-04-27T07:00:24.543Z,97405.78
2023-04-27T07:02:51.626Z,97424.06
2023-04-27T07:05:18.285Z,97412.22
2023-04-27T07:07:44.688Z,97408.06
2023-04-27T07:10:11.128Z,97407.63
2023-04-27T07:12:38.577Z,97413.34
2023-04-27T07:15:06.607Z,97408.06
2023-04-27T07:17:33.487Z,97413.94
2023-04-27T07:20:01.328Z,97403.72
2023-04-27T07:22:28.868Z,97410.97
2023-04-27T07:24:55.264Z,97407.78
2023-04-27T07:27:22.202Z,97398.34
2023-04-27T07:29:48.617Z,97416.28
2023-04-27T07:32:15.169Z,97406.00
2023-04-27T07:34:52.779Z,97402.66
2023-04-27T07:37:20.428Z,97414.44
2023-04-27T07:39:47.308Z,97393.94
2023-04-27T07:42:15.270Z,97401.28
2023-04-27T07:44:42.423Z,97381.72
2023-04-27T07:47:08.811Z,97386.38
2023-04-27T07:49:35.831Z,97387.75
2023-04-27T07:52:02.199Z,97390.13
2023-04-27T07:54:28.539Z,97390.03
2023-04-27T07:56:55.070Z,97391.00
2023-04-27T07:59:21.637Z,97392.88
2023-04-27T08:01:48.100Z,97397.69
2023-04-27T08:04:16.151Z,97389.38
2023-04-27T08:06:43.611Z,97388.94
2023-04-27T08:09:10.313Z,97390.03
2023-04-27T08:11:36.783Z,97380.50
2023-04-27T08:14:03.262Z,97385.34
2023-04-27T08:16:29.680Z,97397.69
2023-04-27T08:18:56.835Z,97381.78
2023-04-27T08:21:23.845Z,97377.13
2023-04-27T08:23:50.283Z,97368.34
2023-04-27T08:26:16.652Z,97386.16
2023-04-27T08:28:42.996Z,97387.91
2023-04-27T08:31:09.407Z,97385.47
2023-04-27T08:33:35.811Z,97373.91
2023-04-27T08:36:02.241Z,97380.78
2023-04-27T08:38:28.575Z,97380.41
2023-04-27T08:40:55.000Z,97380.06
2023-04-27T08:43:21.389Z,97384.19
2023-04-27T08:45:50.238Z,97389.59
2023-04-27T08:48:16.768Z,97381.22
2023-04-27T08:50:44.712Z,97380.59
2023-04-27T08:53:22.105Z,97393.59
2023-04-27T08:55:51.696Z,97391.78
2023-04-27T08:58:18.118Z,97395.78
2023-04-27T09:00:45.810Z,97383.56
2023-04-27T09:03:25.598Z,97380.88
2023-04-27T09:06:03.533Z,97370.81
2023-04-27T09:08:46.519Z,97385.44
2023-04-27T09:11:30.004Z,97371.34
2023-04-27T09:13:58.541Z,97385.41
2023-04-27T09:16:28.297Z,97383.38
2023-04-27T09:18:56.502Z,97387.06
2023-04-27T09:21:24.671Z,97370.63
2023-04-27T09:23:51.370Z,97378.91
2023-04-27T09:26:22.903Z,97380.41
2023-04-27T09:28:51.346Z,97381.50
2023-04-27T09:31:18.508Z,97375.97
2023-04-27T09:33:46.189Z,97374.16
2023-04-27T09:36:13.616Z,97370.47
2023-04-27T09:38:40.180Z,97375.34
2023-04-27T09:41:07.907Z,97376.41
2023-04-27T09:43:34.556Z,97373.78
2023-04-27T09:46:01.556Z,97367.84
2023-04-27T09:48:28.026Z,97370.28
2023-04-27T09:50:54.468Z,97372.47
2023-04-27T09:53:36.853Z,97380.31
2023-04-27T09:56:23.643Z,97376.81
2023-04-27T09:58:53.024Z,97384.47
2023-04-27T10:01:34.295Z,97364.16
2023-04-27T10:04:15.732Z,97375.97
2023-04-27T10:07:00.308Z,97365.19
2023-04-27T10:09:30.413Z,97361.41
2023-04-27T10:11:56.910Z,97357.38
2023-04-27T10:14:24.452Z,97361.31
2023-04-27T10:16:54.060Z,97366.69
2023-04-27T10:19:21.972Z,97364.28
2023-04-27T10:22:03.564Z,97359.97
2023-04-27T10:24:37.744Z,97339.19
2023-04-27T10:27:06.788Z,97350.22
2023-04-27T10:29:41.993Z,97354.25
2023-04-27T10:32:11.666Z,97354.09
2023-04-27T10:34:40.551Z,97351.63
2023-04-27T10:37:11.874Z,97351.66
2023-04-27T10:39:48.450Z,97342.31
2023-04-27T10:42:26.113Z,97354.00
2023-04-27T10:44:57.396Z,97363.81
2023-04-27T10:47:24.558Z,97356.13
2023-04-27T10:49:54.514Z,97360.44
2023-04-27T10:52:20.969Z,97353.81
2023-04-27T10:54:47.405Z,97355.00
2023-04-27T10:57:14.041Z,97356.44
2023-04-27T10:59:51.936Z,97347.81
2023-04-27T11:02:26.465Z,97345.16
2023-04-27T11:04:53.058Z,97336.63
2023-04-27T11:07:26.664Z,97347.88
2023-04-27T11:09:53.658Z,97337.56
2023-04-27T11:12:20.060Z,97336.50
2023-04-27T11:14:46.524Z,97341.38
2023-04-27T11:17:13.349Z,97345.91
2023-04-27T11:19:48.682Z,97322.56
2023-04-27T11:22:16.871Z,97341.41
2023-04-27T11:24:48.875Z,97334.16
2023-04-27T11:27:15.821Z,97330.03
2023-04-27T11:29:42.503Z,97330.25
2023-04-27T11:32:08.930Z,97332.38
2023-04-27T11:34:38.785Z,97324.00
2023-04-27T11:37:18.080Z,97335.03
2023-04-27T11:39:45.755Z,97329.75
2023-04-27T11:42:15.033Z,97320.38
2023-04-27T11:44:41.407Z,97312.56
2023-04-27T11:47:09.163Z,97321.72
2023-04-27T11:49:37.549Z,97322.91
2023-04-27T11:52:04.281Z,97328.16
2023-04-27T11:54:31.248Z,97316.59
2023-04-27T11:57:05.913Z,97330.06
2023-04-27T11:59:32.469Z,97323.31
2023-04-27T12:02:00.059Z,97312.09
2023-04-27T12:04:27.371Z,97315.59
2023-04-27T12:06:54.087Z,97313.75
2023-04-27T12:09:20.488Z,97311.38
2023-04-27T12:11:47.206Z,97313.28
2023-04-27T12:14:13.834Z,97297.16
2023-04-27T12:16:40.426Z,97304.69
2023-04-27T12:19:07.286Z,97297.69
2023-04-27T12:21:34.004Z,97287.78
2023-04-27T12:24:00.441Z,97292.00
2023-04-27T12:26:26.866Z,97297.97
2023-04-27T12:28:53.225Z,97288.06
2023-04-27T12:31:26.927Z,97298.41
2023-04-27T12:33:54.163Z,97282.97
2023-04-27T12:36:20.513Z,97294.91
2023-04-27T12:38:47.113Z,97282.53
2023-04-27T12:41:13.610Z,97271.66
2023-04-27T12:43:41.162Z,97279.78
2023-04-27T12:46:07.785Z,97282.09
2023-04-27T12:48:34.223Z,97271.19
2023-04-27T12:51:00.750Z,97287.63
2023-04-27T12:53:28.236Z,97281.91
2023-04-27T12:55:54.607Z,97288.88
2023-04-27T12:58:20.989Z,97276.09
2023-04-27T13:00:47.365Z,97283.09
2023-04-27T13:03:14.256Z,97262.28
2023-04-27T13:05:40.665Z,97262.91
2023-04-27T13:08:07.074Z,97276.88
2023-04-27T13:10:33.524Z,97267.31
2023-04-27T13:12:59.984Z,97280.81
2023-04-27T13:15:26.443Z,97277.69
2023-04-27T13:17:54.336Z,97270.09
2023-04-27T13:20:21.090Z,97266.41
2023-04-27T13:22:48.121Z,97260.16
2023-04-27T13:25:16.469Z,97255.38
2023-04-27T13:27:42.843Z,97266.84
2023-04-27T13:30:09.749Z,97263.41
2023-04-27T13:32:36.483Z,97264.75
2023-04-27T13:35:03.875Z,97269.09
2023-04-27T13:37:30.357Z,97269.22
2023-04-27T13:39:56.721Z,97279.13
2023-04-27T13:42:29.160Z,97265.97
2023-04-27T13:44:56.825Z,97259.53
2023-04-27T13:47:23.370Z,97263.34
2023-04-27T13:49:49.835Z,97264.25
2023-04-27T13:52:16.304Z,97268.97
2023-04-27T13:54:42.676Z,97263.53
2023-04-27T13:57:09.042Z,97277.94
2023-04-27T13:59:35.375Z,97280.69
2023-04-27T14:02:01.765Z,97286.03
2023-04-27T14:04:28.159Z,97292.56
2023-04-27T14:06:54.606Z,97281.84
2023-04-27T14:09:20.953Z,97268.66
2023-04-27T14:11:56.436Z,97272.91
2023-04-27T14:14:23.710Z,97274.56
2023-04-27T14:16:53.051Z,97268.47
2023-04-27T14:19:20.603Z,97280.16
2023-04-27T14:21:48.065Z,97266.88
2023-04-27T14:24:14.746Z,97275.66
2023-04-27T14:26:43.984Z,97278.09
2023-04-27T14:29:11.325Z,97271.53
2023-04-27T14:31:39.247Z,97278.72
2023-04-27T14:34:06.871Z,97271.66
2023-04-27T14:36:33.417Z,97272.88
2023-04-27T14:39:04.144Z,97259.91
2023-04-27T14:41:30.674Z,97280.75
2023-04-27T14:43:57.039Z,97260.25
2023-04-27T14:46:23.597Z,97266.28
2023-04-27T14:48:50.114Z,97267.38
2023-04-27T14:51:17.050Z,97272.22
2023-04-27T14:53:44.057Z,97262.09
2023-04-27T14:56:11.789Z,97262.91
2023-04-27T14:58:38.621Z,97261.41
2023-04-27T15:01:05.136Z,97259.16
2023-04-27T15:03:34.653Z,97252.47
2023-04-27T15:06:02.408Z,97251.31
2023-04-27T15:08:31.305Z,97247.38
2023-04-27T15:10:59.679Z,97250.41
2023-04-27T15:13:27.025Z,97246.78
2023-04-27T15:15:58.026Z,97232.41
2023-04-27T15:18:25.521Z,97242.16
2023-04-27T15:20:56.418Z,97233.72
2023-04-27T15:23:23.770Z,97234.50
2023-04-27T15:25:51.753Z,97219.78
2023-04-27T15:28:18.578Z,97223.09
2023-04-27T15:30:45.364Z,97208.69
2023-04-27T15:33:13.006Z,97213.53
2023-04-27T15:35:40.386Z,97221.38
2023-04-27T15:38:08.191Z,97212.97
2023-04-27T15:40:35.084Z,97210.44
2023-04-27T15:43:01.827Z,97203.03
2023-04-27T15:45:29.165Z,97205.78
2023-04-27T15:47:55.680Z,97199.97
2023-04-27T15:50:22.871Z,97196.09
2023-04-27T15:52:49.381Z,97189.31
2023-04-27T15:55:16.488Z,97189.94
2023-04-27T15:57:42.865Z,97190.66
2023-04-27T16:00:12.669Z,97181.69
2023-04-27T16:02:40.168Z,97196.84
2023-04-27T16:05:08.092Z,97189.78
2023-04-27T16:07:36.242Z,97191.44
2023-04-27T16:10:04.109Z,97186.84
2023-04-27T16:12:30.675Z,97181.19
2023-04-27T16:14:57.372Z,97186.97
2023-04-27T16:17:28.025Z,97188.81
2023-04-27T16:19:54.865Z,97173.78
2023-04-27T16:22:22.146Z,97173.06
2023-04-27T16:24:48.806Z,97178.38
2023-04-27T16:27:16.427Z,97152.84
2023-04-27T16:29:42.945Z,97172.84
2023-04-27T16:32:10.852Z,97170.31
2023-04-27T16:34:38.094Z,97161.44
2023-04-27T16:37:04.569Z,97155.56
2023-04-27T16:39:30.982Z,97175.19
2023-04-27T16:41:57.357Z,97177.66
2023-04-27T16:44:23.851Z,97172.63
2023-04-27T16:46:53.622Z,97171.41
2023-04-27T16:49:19.998Z,97185.81
2023-04-27T16:51:46.414Z,97176.44
2023-04-27T16:54:16.191Z,97167.16
2023-04-27T16:56:42.702Z,97180.66
2023-04-27T16:59:12.181Z,97171.41
2023-04-27T17:01:39.092Z,97168.63
2023-04-27T17:04:05.704Z,97173.97
2023-04-27T17:06:33.099Z,97176.44
2023-04-27T17:08:59.463Z,97167.31
2023-04-27T17:11:26.358Z,97169.13
2023-04-27T17:13:52.760Z,97176.78
2023-04-27T17:16:19.438Z,97165.00
2023-04-27T17:18:49.040Z,97169.97
2023-04-27T17:21:16.736Z,97169.63
2023-04-27T17:23:43.119Z,97160.34
2023-04-27T17:26:09.951Z,97162.81
2023-04-27T17:28:36.389Z,97156.81
2023-04-27T17:31:02.902Z,97154.72
2023-04-27T17:33:29.249Z,97166.06
2023-04-27T17:35:55.634Z,97143.13
2023-04-27T17:38:22.056Z,97153.91
2023-04-27T17:40:48.432Z,97171.81
2023-04-27T17:43:14.774Z,97166.03
2023-04-27T17:45:41.190Z,97152.13
2023-04-27T17:48:07.693Z,97164.41
2023-04-27T17:50:35.929Z,97161.84
2023-04-27T17:53:02.351Z,97162.94
2023-04-27T17:55:28.847Z,97160.81
2023-04-27T17:57:55.330Z,97161.75
2023-04-27T18:00:22.285Z,97163.13
2023-04-27T18:02:49.760Z,97150.59
2023-04-27T18:05:17.107Z,97146.66
2023-04-27T18:07:46.024Z,97159.38
2023-04-27T18:10:12.471Z,97166.28
2023-04-27T18:12:38.804Z,97147.59
2023-04-27T18:15:07.656Z,97155.72
2023-04-27T18:17:35.970Z,97146.22
2023-04-27T18:20:09.520Z,97126.97
2023-04-27T18:22:38.452Z,97142.75
2023-04-27T18:25:05.270Z,97126.19
2023-04-27T18:27:32.809Z,97130.19
2023-04-27T18:29:59.302Z,97145.81
2023-04-27T18:32:25.917Z,97138.78
2023-04-27T18:34:52.352Z,97155.94
2023-04-27T18:37:18.714Z,97147.84
2023-04-27T18:39:45.138Z,97145.69
2023-04-27T18:42:11.563Z,97154.13
2023-04-27T18:44:37.958Z,97145.56
2023-04-27T18:47:04.558Z,97150.59
2023-04-27T18:49:31.030Z,97143.25
2023-04-27T18:51:57.445Z,97152.28
2023-04-27T18:54:23.900Z,97150.91
2023-04-27T18:56:52.976Z,97162.72
2023-04-27T18:59:20.114Z,97156.13
2023-04-27T19:01:46.654Z,97151.34
2023-04-27T19:04:13.335Z,97150.13
2023-04-27T19:06:39.911Z,97147.06
2023-04-27T19:09:06.263Z,97144.63
2023-04-27T19:11:32.646Z,97147.38
2023-04-27T19:13:59.088Z,97152.41
2023-04-27T19:16:25.587Z,97144.28
2023-04-27T19:18:52.008Z,97151.50
2023-04-27T19:21:18.386Z,97148.28
2023-04-27T19:23:45.402Z,97141.81
2023-04-27T19:26:13.937Z,97146.09
2023-04-27T19:28:40.894Z,97153.13
2023-04-27T19:31:07.592Z,97146.06
2023-04-27T19:33:34.109Z,97141.94
2023-04-27T19:36:00.808Z,97149.44
2023-04-27T19:38:27.242Z,97137.16
2023-04-27T19:40:53.650Z,97150.91
2023-04-27T19:43:19.990Z,97143.38
2023-04-27T19:45:48.722Z,97138.47
2023-04-27T19:48:15.565Z,97151.78
2023-04-27T19:50:42.352Z,97137.50
2023-04-27T19:53:09.298Z,97152.22
2023-04-27T19:55:35.868Z,97139.78
2023-04-27T19:58:02.359Z,97149.28
2023-04-27T20:00:28.732Z,97144.53
2023-04-27T20:02:56.501Z,97148.16
2023-04-27T20:05:23.565Z,97151.84
2023-04-27T20:07:50.121Z,97147.72
2023-04-27T20:10:16.743Z,97140.97
2023-04-27T20:12:55.467Z,97144.19
2023-04-27T20:15:22.882Z,97144.78
2023-04-27T20:17:49.319Z,97137.59
2023-04-27T20:20:15.792Z,97136.34
2023-04-27T20:22:42.191Z,97128.84
2023-04-27T20:25:08.908Z,97116.94
2023-04-27T20:27:35.799Z,97112.94
2023-04-27T20:30:02.145Z,97123.97
2023-04-27T20:32:28.531Z,97124.88
2023-04-27T20:34:54.886Z,97105.88
2023-04-27T20:37:21.319Z,97110.59
2023-04-27T20:39:47.900Z,97124.22
2023-04-27T20:42:14.386Z,97126.81
2023-04-27T20:44:40.740Z,97121.91
2023-04-27T20:47:07.181Z,97115.63
2023-04-27T20:49:35.349Z,97118.41
2023-04-27T20:52:02.215Z,97102.44
2023-04-27T20:54:30.943Z,97113.78
2023-04-27T20:56:57.760Z,97114.38
2023-04-27T20:59:24.238Z,97105.19
2023-04-27T21:01:50.668Z,97115.75
2023-04-27T21:04:17.265Z,97101.34
2023-04-27T21:06:43.998Z,97091.56
2023-04-27T21:09:10.507Z,97091.88
2023-04-27T21:11:36.879Z,97101.72
2023-04-27T21:14:03.216Z,97093.75
2023-04-27T21:16:29.749Z,97105.41
2023-04-27T21:18:56.188Z,97100.69
2023-04-27T21:21:22.598Z,97088.28
2023-04-27T21:23:54.393Z,97093.53
2023-04-27T21:26:27.384Z,97086.06
2023-04-27T21:28:53.729Z,97088.53
2023-04-27T21:31:20.814Z,97086.56
2023-04-27T21:33:47.311Z,97081.47
2023-04-27T21:36:13.669Z,97082.28
2023-04-27T21:38:40.022Z,97098.03
2023-04-27T21:41:06.440Z,97083.97
2023-04-27T21:43:33.059Z,97090.88
2023-04-27T21:45:59.635Z,97084.75
2023-04-27T21:48:26.040Z,97086.31
2023-04-27T21:50:52.396Z,97078.19
2023-04-27T21:53:18.778Z,97084.00
2023-04-27T21:55:45.107Z,97077.41
2023-04-27T21:58:11.569Z,97057.53
2023-04-27T22:00:38.527Z,97063.06
2023-04-27T22:03:05.169Z,97073.63
2023-04-27T22:05:33.395Z,97067.78
2023-04-27T22:07:59.825Z,97064.13
2023-04-27T22:10:26.219Z,97052.66
2023-04-27T22:12:52.606Z,97065.78
2023-04-27T22:15:20.282Z,97063.50
2023-04-27T22:17:47.162Z,97056.50
2023-04-27T22:20:14.310Z,97053.13
2023-04-27T22:22:41.114Z,97060.13
2023-04-27T22:25:08.041Z,97054.50
2023-04-27T22:27:41.945Z,97059.72
2023-04-27T22:30:11.425Z,97046.09
2023-04-27T22:32:37.947Z,97040.31
2023-04-27T22:35:06.928Z,97035.72
2023-04-27T22:37:35.329Z,97042.75
2023-04-27T22:40:01.766Z,97039.72
2023-04-27T22:42:28.173Z,97042.66
2023-04-27T22:44:54.490Z,97033.59
2023-04-27T22:47:21.002Z,97034.72
2023-04-27T22:49:48.336Z,97029.78
2023-04-27T22:52:16.393Z,97036.84
2023-04-27T22:54:42.728Z,97038.06
2023-04-27T22:57:09.135Z,97015.28
2023-04-27T22:59:35.666Z,97027.06
2023-04-27T23:02:02.171Z,97018.34
2023-04-27T23:04:29.060Z,97032.09
2023-04-27T23:06:55.600Z,97029.50
2023-04-27T23:09:22.547Z,97018.97
2023-04-27T23:11:50.874Z,97021.13
2023-04-27T23:14:20.930Z,97028.13
2023-04-27T23:16:47.339Z,97014.22
2023-04-27T23:19:13.789Z,97013.91
2023-04-27T23:21:40.562Z,97015.91
2023-04-27T23:24:06.987Z,97023.88
2023-04-27T23:26:33.426Z,97005.38
2023-04-27T23:28:59.794Z,97013.53
2023-04-27T23:31:26.400Z,97012.09
2023-04-27T23:33:52.889Z,97014.56
2023-04-27T23:36:19.289Z,97005.84
2023-04-27T23:38:45.648Z,97009.84
2023-04-27T23:41:12.122Z,97010.56
2023-04-27T23:43:38.580Z,97007.97
2023-04-27T23:46:05.676Z,97009.19
2023-04-27T23:48:32.374Z,97004.50
2023-04-27T23:51:03.353Z,96996.69
2023-04-27T23:53:30.472Z,96997.94
2023-04-27T23:55:57.384Z,96993.78
2023-04-27T23:58:24.842Z,96983.72
